createdAt,value
2022-12-12T00:00:49.921Z,22.70
2022-12-12T00:01:49.901Z,21.70
2022-12-12T00:02:49.948Z,23.10
2022-12-12T00:03:49.954Z,23.40
2022-12-12T00:04:49.862Z,20.40
2022-12-12T00:05:49.855Z,23.10
2022-12-12T00:06:49.835Z,22.20
2022-12-12T00:07:49.874Z,23.30
2022-12-12T00:08:49.801Z,23.10
2022-12-12T00:09:49.800Z,24.30
2022-12-12T00:10:49.791Z,25.00
2022-12-12T00:11:49.781Z,21.90
2022-12-12T00:12:49.772Z,22.60
2022-12-12T00:13:49.763Z,23.40
2022-12-12T00:14:49.733Z,22.90
2022-12-12T00:15:49.814Z,20.30
2022-12-12T00:16:49.701Z,21.50
2022-12-12T00:17:49.692Z,23.10
2022-12-12T00:18:49.682Z,18.90
2022-12-12T00:19:50.692Z,20.60
2022-12-12T00:20:49.673Z,18.50
2022-12-12T00:21:49.647Z,22.80
2022-12-12T00:22:49.645Z,23.80
2022-12-12T00:23:49.623Z,23.40
2022-12-12T00:24:50.611Z,23.80
2022-12-12T00:25:49.613Z,24.30
2022-12-12T00:26:49.600Z,20.70
2022-12-12T00:27:49.578Z,22.30
2022-12-12T00:28:49.552Z,20.30
2022-12-12T00:29:49.564Z,21.80
2022-12-12T00:30:49.595Z,23.80
2022-12-12T00:31:49.535Z,19.70
2022-12-12T00:32:49.502Z,22.30
2022-12-12T00:33:49.494Z,22.10
2022-12-12T00:34:49.481Z,21.80
2022-12-12T00:35:49.493Z,20.40
2022-12-12T00:36:49.463Z,21.20
2022-12-12T00:37:49.452Z,23.50
2022-12-12T00:38:49.441Z,23.80
2022-12-12T00:39:49.433Z,23.30
2022-12-12T00:40:49.430Z,20.30
2022-12-12T00:41:49.393Z,23.10
2022-12-12T00:42:49.382Z,20.80
2022-12-12T00:43:49.382Z,20.90
2022-12-12T00:44:49.364Z,20.70
2022-12-12T00:45:49.393Z,20.40
2022-12-12T00:46:49.392Z,18.80
2022-12-12T00:47:49.333Z,20.80
2022-12-12T00:48:49.303Z,17.40
2022-12-12T00:49:49.307Z,21.50
2022-12-12T00:50:49.316Z,21.40
2022-12-12T00:51:49.311Z,21.50
2022-12-12T00:52:49.262Z,20.90
2022-12-12T00:53:49.262Z,20.90
2022-12-12T00:54:49.232Z,22.30
2022-12-12T00:55:49.236Z,21.20
2022-12-12T00:56:49.213Z,20.10
2022-12-12T00:57:49.213Z,19.90
2022-12-12T00:58:49.199Z,20.50
2022-12-12T00:59:49.172Z,21.00
2022-12-12T01:00:49.172Z,20.20
2022-12-12T01:01:49.213Z,19.80
2022-12-12T01:02:49.209Z,20.90
2022-12-12T01:03:49.153Z,19.90
2022-12-12T01:04:49.112Z,19.90
2022-12-12T01:05:49.107Z,20.30
2022-12-12T01:06:49.103Z,19.80
2022-12-12T01:07:49.108Z,16.50
2022-12-12T01:08:49.084Z,17.80
2022-12-12T01:09:49.045Z,17.50
2022-12-12T01:10:49.053Z,20.10
2022-12-12T01:11:49.032Z,19.30
2022-12-12T01:12:49.023Z,16.70
2022-12-12T01:13:49.017Z,18.40
2022-12-12T01:14:48.992Z,18.40
2022-12-12T01:15:49.057Z,20.20
2022-12-12T01:16:49.962Z,20.00
2022-12-12T01:17:48.943Z,19.10
2022-12-12T01:18:48.942Z,20.00
2022-12-12T01:19:48.922Z,18.80
2022-12-12T01:20:49.931Z,18.60
2022-12-12T01:21:48.917Z,19.50
2022-12-12T01:22:48.909Z,19.00
2022-12-12T01:23:48.877Z,19.20
2022-12-12T01:24:48.874Z,19.20
2022-12-12T01:25:48.871Z,19.30
2022-12-12T01:26:48.841Z,20.60
2022-12-12T01:27:48.850Z,20.50
2022-12-12T01:28:48.844Z,19.50
2022-12-12T01:29:48.803Z,20.10
2022-12-12T01:30:48.804Z,20.30
2022-12-12T01:31:48.811Z,18.60
2022-12-12T01:32:48.788Z,18.90
2022-12-12T01:33:48.754Z,18.90
2022-12-12T01:34:48.757Z,20.10
2022-12-12T01:35:48.734Z,19.70
2022-12-12T01:36:48.712Z,19.80
2022-12-12T01:37:48.702Z,18.70
2022-12-12T01:38:48.704Z,18.70
2022-12-12T01:39:48.688Z,19.50
2022-12-12T01:40:48.692Z,18.30
2022-12-12T01:41:48.682Z,18.70
2022-12-12T01:42:49.634Z,17.70
2022-12-12T01:43:48.662Z,19.70
2022-12-12T01:44:48.624Z,20.00
2022-12-12T01:45:48.633Z,18.80
2022-12-12T01:46:48.638Z,19.70
2022-12-12T01:47:49.618Z,19.40
2022-12-12T01:48:48.574Z,20.20
2022-12-12T01:49:48.554Z,18.30
2022-12-12T01:50:48.562Z,18.20
2022-12-12T01:51:48.534Z,18.90
2022-12-12T01:52:48.533Z,17.40
2022-12-12T01:53:48.523Z,17.90
2022-12-12T01:54:48.492Z,18.20
2022-12-12T01:55:48.482Z,17.10
2022-12-12T01:56:48.473Z,18.10
2022-12-12T01:57:48.462Z,16.90
2022-12-12T01:58:48.465Z,16.40
2022-12-12T01:59:48.425Z,17.20
2022-12-12T02:00:48.457Z,16.70
2022-12-12T02:01:48.458Z,17.50
2022-12-12T02:02:48.396Z,17.00
2022-12-12T02:03:48.386Z,18.50
2022-12-12T02:04:48.383Z,17.40
2022-12-12T02:05:48.385Z,19.40
2022-12-12T02:06:48.343Z,19.10
2022-12-12T02:07:48.383Z,18.30
2022-12-12T02:08:48.335Z,19.90
2022-12-12T02:09:48.311Z,20.40
2022-12-12T02:10:48.304Z,19.90
2022-12-12T02:11:48.285Z,19.00
2022-12-12T02:12:48.273Z,19.30
2022-12-12T02:13:48.254Z,20.80
2022-12-12T02:14:48.244Z,18.50
2022-12-12T02:15:48.288Z,20.10
2022-12-12T02:16:48.213Z,18.50
2022-12-12T02:17:48.203Z,21.60
2022-12-12T02:18:48.198Z,18.10
2022-12-12T02:19:48.181Z,21.10
2022-12-12T02:20:48.191Z,20.70
2022-12-12T02:21:48.142Z,18.20
2022-12-12T02:22:48.163Z,21.10
2022-12-12T02:23:48.138Z,20.00
2022-12-12T02:24:48.112Z,21.40
2022-12-12T02:25:48.135Z,21.00
2022-12-12T02:26:48.103Z,20.80
2022-12-12T02:27:48.083Z,23.30
2022-12-12T02:28:48.072Z,21.70
2022-12-12T02:29:49.064Z,23.90
2022-12-12T02:30:48.063Z,24.80
2022-12-12T02:31:48.064Z,22.60
2022-12-12T02:32:48.017Z,22.80
2022-12-12T02:33:48.005Z,22.00
2022-12-12T02:34:48.001Z,24.00
2022-12-12T02:35:48.027Z,25.20
2022-12-12T02:36:47.992Z,25.10
2022-12-12T02:37:47.953Z,24.00
2022-12-12T02:38:47.945Z,25.30
2022-12-12T02:39:47.923Z,26.00
2022-12-12T02:40:47.935Z,24.30
2022-12-12T02:41:47.910Z,24.50
2022-12-12T02:42:47.883Z,25.70
2022-12-12T02:43:47.885Z,24.40
2022-12-12T02:44:47.882Z,25.20
2022-12-12T02:45:47.853Z,24.70
2022-12-12T02:46:47.929Z,23.20
2022-12-12T02:47:47.824Z,24.80
2022-12-12T02:48:47.821Z,23.60
2022-12-12T02:49:47.818Z,24.90
2022-12-12T02:50:47.802Z,28.30
2022-12-12T02:51:47.800Z,25.80
2022-12-12T02:52:47.757Z,25.90
2022-12-12T02:53:47.756Z,24.40
2022-12-12T02:54:47.735Z,25.20
2022-12-12T02:55:47.723Z,26.50
2022-12-12T02:56:47.726Z,27.90
2022-12-12T02:57:47.694Z,27.70
2022-12-12T02:58:47.692Z,24.60
2022-12-12T02:59:47.674Z,25.30
2022-12-12T03:00:48.706Z,24.40
2022-12-12T03:01:47.687Z,23.50
2022-12-12T03:02:47.652Z,22.50
2022-12-12T03:03:47.633Z,25.80
2022-12-12T03:04:47.620Z,25.70
2022-12-12T03:05:47.605Z,23.80
2022-12-12T03:06:47.625Z,23.30
2022-12-12T03:07:47.647Z,24.30
2022-12-12T03:08:47.569Z,25.80
2022-12-12T03:09:47.655Z,26.30
2022-12-12T03:10:47.547Z,24.90
2022-12-12T03:11:47.527Z,26.80
2022-12-12T03:12:47.524Z,24.40
2022-12-12T03:13:47.575Z,27.30
2022-12-12T03:14:47.583Z,27.20
2022-12-12T03:15:47.485Z,28.70
2022-12-12T03:16:47.495Z,27.80
2022-12-12T03:17:47.555Z,28.40
2022-12-12T03:18:47.524Z,28.00
2022-12-12T03:19:48.449Z,28.90
2022-12-12T03:20:47.424Z,21.30
2022-12-12T03:21:47.413Z,25.50
2022-12-12T03:22:47.502Z,26.60
2022-12-12T03:23:47.444Z,28.90
2022-12-12T03:25:09.539Z,28.30
2022-12-12T03:25:47.374Z,29.90
2022-12-12T03:26:47.352Z,31.40
2022-12-12T03:27:47.360Z,28.90
2022-12-12T03:28:47.394Z,29.80
2022-12-12T03:29:47.422Z,26.00
2022-12-12T03:30:47.387Z,26.90
2022-12-12T03:31:47.361Z,29.40
2022-12-12T03:32:47.366Z,26.70
2022-12-12T03:33:47.315Z,27.50
2022-12-12T03:34:47.336Z,28.50
2022-12-12T03:35:47.325Z,30.90
2022-12-12T03:36:47.222Z,32.70
2022-12-12T03:37:47.305Z,32.50
2022-12-12T03:38:47.266Z,34.30
2022-12-12T03:39:47.219Z,33.80
2022-12-12T03:40:47.174Z,32.20
2022-12-12T03:41:47.172Z,27.90
2022-12-12T03:42:47.143Z,27.40
2022-12-12T03:43:47.173Z,32.20
2022-12-12T03:44:47.209Z,30.70
2022-12-12T03:45:47.254Z,31.40
2022-12-12T03:46:47.129Z,27.10
2022-12-12T03:47:49.184Z,26.30
2022-12-12T03:48:47.164Z,31.90
2022-12-12T03:49:47.063Z,31.20
2022-12-12T04:03:28.104Z,22.00
2022-12-12T04:04:28.086Z,20.00
2022-12-12T04:05:28.055Z,27.30
2022-12-12T04:06:28.047Z,29.50
2022-12-12T04:07:28.044Z,26.30
2022-12-12T04:08:28.096Z,27.50
2022-12-12T04:09:28.005Z,29.00
2022-12-12T04:10:28.016Z,27.20
2022-12-12T04:11:28.007Z,26.50
2022-12-12T04:12:28.014Z,26.90
2022-12-12T04:13:32.082Z,23.80
2022-12-12T04:14:27.966Z,27.40
2022-12-12T04:15:27.947Z,28.60
2022-12-12T04:16:27.994Z,28.30
2022-12-12T04:17:27.926Z,24.00
2022-12-12T04:18:27.898Z,25.70
2022-12-12T04:19:27.905Z,25.40
2022-12-12T04:20:27.893Z,22.30
2022-12-12T04:21:27.877Z,24.00
2022-12-12T04:22:27.865Z,25.20
2022-12-12T04:23:27.831Z,26.00
2022-12-12T04:24:27.836Z,24.30
2022-12-12T04:25:27.818Z,26.50
2022-12-12T04:26:27.807Z,32.40
2022-12-12T04:27:27.775Z,26.70
2022-12-12T04:28:27.777Z,31.10
2022-12-12T04:29:27.777Z,28.70
2022-12-12T04:30:27.754Z,25.60
2022-12-12T04:31:27.772Z,25.30
2022-12-12T04:32:27.716Z,26.80
2022-12-12T04:33:27.698Z,23.20
2022-12-12T04:34:27.714Z,23.80
2022-12-12T04:35:27.685Z,26.60
2022-12-12T04:36:27.675Z,25.10
2022-12-12T04:37:27.646Z,22.50
2022-12-12T04:38:27.654Z,22.10
2022-12-12T04:39:27.664Z,23.70
2022-12-12T04:40:27.714Z,22.60
2022-12-12T04:42:37.839Z,24.40
2022-12-12T04:43:37.862Z,22.60
2022-12-12T04:44:37.821Z,23.50
2022-12-12T04:45:38.954Z,25.70
2022-12-12T04:46:58.802Z,23.30
2022-12-12T04:47:37.788Z,25.10
2022-12-12T04:50:56.302Z,25.90
2022-12-12T04:52:03.809Z,26.50
2022-12-12T04:52:56.285Z,26.90
2022-12-12T04:54:04.945Z,26.40
2022-12-12T04:55:03.762Z,26.50
2022-12-12T04:56:03.760Z,27.70
2022-12-12T04:57:17.229Z,22.80
2022-12-12T04:58:03.754Z,23.80
2022-12-12T04:58:56.204Z,26.70
2022-12-12T05:00:36.367Z,27.30
2022-12-12T05:00:56.231Z,27.70
2022-12-12T05:02:17.201Z,24.00
2022-12-12T05:02:56.134Z,21.90
2022-12-12T05:03:56.139Z,23.00
2022-12-12T05:05:04.868Z,24.90
2022-12-12T05:05:56.113Z,25.30
2022-12-12T05:06:56.103Z,27.60
2022-12-12T05:09:06.336Z,29.30
2022-12-12T05:10:27.386Z,30.90
2022-12-12T05:11:06.287Z,25.50
2022-12-12T05:12:06.286Z,25.00
2022-12-12T05:13:06.257Z,27.10
2022-12-12T05:14:14.945Z,28.20
2022-12-12T05:15:06.236Z,29.30
2022-12-12T05:16:06.245Z,26.60
2022-12-12T05:17:06.278Z,24.70
2022-12-12T05:18:06.269Z,30.10
2022-12-12T05:19:06.295Z,32.10
2022-12-12T05:20:06.184Z,29.10
2022-12-12T05:21:06.294Z,28.70
2022-12-12T05:22:06.176Z,30.10
2022-12-12T05:23:06.194Z,32.10
2022-12-12T05:24:06.133Z,27.70
2022-12-12T05:25:09.419Z,30.00
2022-12-12T05:26:06.119Z,29.20
2022-12-12T05:27:06.139Z,27.40
2022-12-12T05:28:06.096Z,26.80
2022-12-12T05:29:07.717Z,25.90
2022-12-12T05:30:06.164Z,27.50
2022-12-12T05:31:06.076Z,25.00
2022-12-12T05:32:06.049Z,27.70
2022-12-12T05:33:06.053Z,26.70
2022-12-12T05:34:06.095Z,29.30
2022-12-12T05:35:06.013Z,26.70
2022-12-12T05:36:06.077Z,28.40
2022-12-12T05:37:05.966Z,28.80
2022-12-12T05:38:05.984Z,28.10
2022-12-12T05:39:06.003Z,25.00
2022-12-12T05:40:06.034Z,29.30
2022-12-12T05:41:06.013Z,28.80
2022-12-12T05:42:06.025Z,25.10
2022-12-12T05:43:05.902Z,25.20
2022-12-12T05:44:05.895Z,29.20
2022-12-12T05:45:05.954Z,28.70
2022-12-12T05:46:05.984Z,21.40
2022-12-12T05:47:05.944Z,24.60
2022-12-12T05:48:05.835Z,22.00
2022-12-12T05:49:05.857Z,24.70
2022-12-12T05:50:05.902Z,26.90
2022-12-12T05:51:05.865Z,27.30
2022-12-12T05:52:05.878Z,28.90
2022-12-12T05:53:05.812Z,31.50
2022-12-12T05:54:06.816Z,33.30
2022-12-12T05:55:05.827Z,25.70
2022-12-12T05:56:05.804Z,28.70
2022-12-12T05:57:05.803Z,30.80
2022-12-12T05:58:05.713Z,31.90
2022-12-12T05:59:05.724Z,29.20
2022-12-12T06:00:06.795Z,27.80
2022-12-12T06:01:05.723Z,31.20
2022-12-12T06:02:05.789Z,30.40
2022-12-12T06:03:05.644Z,31.90
2022-12-12T06:04:05.715Z,27.00
2022-12-12T06:05:05.664Z,28.60
2022-12-12T06:06:05.623Z,30.60
2022-12-12T06:07:05.676Z,30.60
2022-12-12T06:08:05.659Z,32.90
2022-12-12T06:09:05.583Z,31.80
2022-12-12T06:10:05.639Z,32.00
2022-12-12T06:12:15.787Z,34.10
2022-12-12T06:13:15.769Z,34.50
2022-12-12T06:14:15.849Z,34.70
2022-12-12T06:15:15.982Z,34.00
2022-12-12T06:16:15.834Z,33.90
2022-12-12T06:17:15.718Z,34.00
2022-12-12T06:18:15.700Z,35.30
2022-12-12T06:19:15.679Z,34.80
2022-12-12T06:20:15.732Z,36.00
2022-12-12T06:21:15.668Z,35.50
2022-12-12T06:22:15.709Z,36.30
2022-12-12T06:23:15.639Z,37.20
2022-12-12T06:24:15.737Z,35.80
2022-12-12T06:25:15.840Z,36.60
2022-12-12T06:26:15.631Z,35.30
2022-12-12T06:27:15.590Z,35.20
2022-12-12T06:28:15.569Z,34.90
2022-12-12T06:29:15.670Z,36.80
2022-12-12T06:30:15.570Z,37.20
2022-12-12T06:31:15.595Z,37.00
2022-12-12T06:32:15.510Z,37.10
2022-12-12T06:33:15.528Z,35.60
2022-12-12T06:34:15.500Z,36.10
2022-12-12T06:35:15.865Z,35.90
2022-12-12T06:36:15.473Z,36.30
2022-12-12T06:37:17.359Z,35.20
2022-12-12T06:38:15.440Z,34.40
2022-12-12T06:39:15.457Z,35.50
2022-12-12T06:40:15.442Z,33.90
2022-12-12T06:41:15.443Z,34.50
2022-12-12T06:42:15.409Z,34.10
2022-12-12T06:43:15.388Z,34.40
2022-12-12T06:44:15.424Z,35.30
2022-12-12T06:45:15.862Z,34.70
2022-12-12T06:46:15.419Z,35.00
2022-12-12T06:47:15.359Z,35.50
2022-12-12T06:48:15.317Z,36.70
2022-12-12T06:49:15.326Z,35.20
2022-12-12T06:50:20.369Z,34.80
2022-12-12T06:51:16.290Z,36.50
2022-12-12T06:52:15.284Z,35.20
2022-12-12T06:53:15.309Z,34.70
2022-12-12T06:54:15.250Z,34.00
2022-12-12T06:55:15.647Z,34.70
2022-12-12T06:56:15.333Z,35.40
2022-12-12T06:57:15.209Z,33.40
2022-12-12T06:58:15.201Z,31.40
2022-12-12T06:59:15.182Z,33.20
2022-12-12T07:00:15.215Z,32.70
2022-12-12T07:01:15.339Z,31.10
2022-12-12T07:02:15.298Z,33.80
2022-12-12T07:03:15.151Z,33.40
2022-12-12T07:04:15.131Z,33.40
2022-12-12T07:05:15.421Z,33.70
2022-12-12T07:06:15.101Z,32.70
2022-12-12T07:07:15.091Z,32.40
2022-12-12T07:08:15.146Z,31.60
2022-12-12T07:09:15.059Z,32.00
2022-12-12T07:10:18.600Z,32.30
2022-12-12T07:11:16.048Z,32.20
2022-12-12T07:12:15.029Z,34.30
2022-12-12T07:13:15.009Z,32.20
2022-12-12T07:14:15.009Z,31.40
2022-12-12T07:15:15.217Z,31.20
2022-12-12T07:16:15.053Z,31.90
2022-12-12T07:17:14.961Z,31.50
2022-12-12T07:18:14.968Z,31.60
2022-12-12T07:19:14.944Z,30.20
2022-12-12T07:20:15.030Z,30.50
2022-12-12T07:21:37.991Z,31.00
2022-12-12T07:22:14.909Z,32.20
2022-12-12T07:23:14.908Z,30.70
2022-12-12T07:24:14.879Z,28.70
2022-12-12T07:25:15.365Z,29.60
2022-12-12T07:26:14.932Z,29.30
2022-12-12T07:27:21.356Z,28.60
2022-12-12T07:28:15.874Z,30.10
2022-12-12T07:29:14.812Z,24.90
2022-12-12T07:30:14.889Z,27.50
2022-12-12T07:31:14.889Z,25.90
2022-12-12T07:32:14.876Z,26.90
2022-12-12T07:33:15.806Z,25.40
2022-12-12T07:34:14.764Z,26.70
2022-12-12T07:35:15.075Z,26.80
2022-12-12T07:36:14.748Z,27.90
2022-12-12T07:37:14.709Z,27.50
2022-12-12T07:38:15.753Z,28.10
2022-12-12T07:39:20.142Z,26.00
2022-12-12T07:40:15.807Z,26.20
2022-12-12T07:41:14.752Z,25.60
2022-12-12T07:42:14.659Z,25.70
2022-12-12T07:43:14.728Z,25.50
2022-12-12T07:44:14.632Z,25.30
2022-12-12T07:45:18.284Z,25.30
2022-12-12T07:46:14.745Z,25.30
2022-12-12T07:47:14.685Z,25.90
2022-12-12T07:48:14.591Z,25.20
2022-12-12T07:49:14.548Z,25.30
2022-12-12T07:50:14.550Z,24.20
2022-12-12T07:51:14.550Z,25.30
2022-12-12T07:52:14.588Z,24.70
2022-12-12T07:53:14.596Z,23.60
2022-12-12T07:54:14.599Z,26.30
2022-12-12T07:55:14.880Z,27.20
2022-12-12T07:56:14.469Z,25.20
2022-12-12T07:57:14.533Z,25.10
2022-12-12T07:58:14.549Z,25.10
2022-12-12T07:59:14.461Z,24.70
2022-12-12T08:00:14.419Z,27.50
2022-12-12T08:01:16.418Z,27.00
2022-12-12T08:02:14.483Z,29.60
2022-12-12T08:03:14.457Z,32.30
2022-12-12T08:04:14.460Z,34.50
2022-12-12T08:05:14.708Z,34.10
2022-12-12T08:06:15.478Z,35.20
2022-12-12T08:07:14.328Z,35.30
2022-12-12T08:08:14.412Z,33.70
2022-12-12T08:09:14.403Z,30.30
2022-12-12T08:10:14.306Z,27.70
2022-12-12T08:11:14.364Z,23.60
2022-12-12T08:12:15.348Z,26.30
2022-12-12T08:13:15.419Z,24.10
2022-12-12T08:14:14.328Z,24.30
2022-12-12T08:15:14.599Z,23.40
2022-12-12T08:16:14.275Z,24.60
2022-12-12T08:17:14.261Z,26.40
2022-12-12T08:18:15.278Z,26.60
2022-12-12T08:19:14.259Z,26.00
2022-12-12T08:20:14.278Z,25.30
2022-12-12T08:21:14.209Z,22.30
2022-12-12T08:22:14.187Z,22.40
2022-12-12T08:23:14.198Z,24.60
2022-12-12T08:24:14.205Z,26.20
2022-12-12T08:25:15.454Z,26.30
2022-12-12T08:26:14.114Z,28.10
2022-12-12T08:27:15.966Z,25.80
2022-12-12T08:28:14.069Z,27.40
2022-12-12T08:29:14.129Z,28.80
2022-12-12T08:30:14.137Z,27.90
2022-12-12T08:31:14.060Z,24.70
2022-12-12T08:32:14.050Z,25.70
2022-12-12T08:33:14.056Z,27.20
2022-12-12T08:34:14.112Z,28.00
2022-12-12T08:35:14.313Z,29.10
2022-12-12T08:36:14.008Z,30.30
2022-12-12T08:37:13.978Z,29.10
2022-12-12T08:38:13.990Z,29.30
2022-12-12T08:39:13.993Z,28.30
2022-12-12T08:40:14.007Z,27.10
2022-12-12T08:41:17.221Z,27.10
2022-12-12T08:42:13.921Z,25.50
2022-12-12T08:43:13.870Z,26.10
2022-12-12T08:44:13.928Z,26.70
2022-12-12T08:45:14.225Z,25.30
2022-12-12T08:46:17.412Z,24.40
2022-12-12T08:48:24.057Z,26.00
2022-12-12T08:49:24.099Z,25.80
2022-12-12T08:50:24.145Z,26.40
2022-12-12T08:51:24.097Z,25.90
2022-12-12T08:52:24.827Z,25.20
2022-12-12T08:53:26.116Z,25.50
2022-12-12T08:54:24.025Z,26.20
2022-12-12T08:55:24.078Z,26.80
2022-12-12T08:56:24.050Z,28.40
2022-12-12T08:57:26.083Z,35.20
2022-12-12T08:58:23.918Z,31.10
2022-12-12T08:59:24.177Z,29.90
2022-12-12T09:00:23.977Z,28.70
2022-12-12T09:01:23.940Z,28.20
2022-12-12T09:02:24.024Z,27.10
2022-12-12T09:03:29.186Z,29.20
2022-12-12T09:04:24.839Z,26.60
2022-12-12T09:05:24.923Z,26.70
2022-12-12T09:06:24.879Z,26.20
2022-12-12T09:07:23.815Z,25.30
2022-12-12T09:08:23.852Z,25.10
2022-12-12T09:09:23.769Z,24.10
2022-12-12T09:10:23.895Z,24.90
2022-12-12T09:11:24.802Z,23.90
2022-12-12T09:12:23.737Z,24.60
2022-12-12T09:13:23.754Z,22.90
2022-12-12T09:14:23.764Z,23.90
2022-12-12T09:15:23.758Z,24.90
2022-12-12T09:16:23.861Z,24.30
2022-12-12T09:17:23.679Z,24.40
2022-12-12T09:18:23.658Z,23.70
2022-12-12T09:19:23.688Z,22.50
2022-12-12T09:20:23.746Z,23.10
2022-12-12T09:21:23.744Z,21.90
2022-12-12T09:22:23.712Z,21.40
2022-12-12T09:23:23.618Z,21.40
2022-12-12T09:24:23.624Z,21.60
2022-12-12T09:25:23.573Z,22.10
2022-12-12T09:26:23.669Z,22.20
2022-12-12T09:27:23.649Z,21.50
2022-12-12T09:28:23.540Z,21.70
2022-12-12T09:29:23.560Z,21.90
2022-12-12T09:30:23.674Z,21.00
2022-12-12T09:31:23.730Z,20.80
2022-12-12T09:32:24.926Z,21.80
2022-12-12T09:33:23.486Z,21.70
2022-12-12T09:34:23.492Z,22.30
2022-12-12T09:35:23.506Z,22.70
2022-12-12T09:36:23.519Z,21.50
2022-12-12T09:37:23.518Z,21.30
2022-12-12T09:38:23.411Z,21.40
2022-12-12T09:39:24.480Z,18.80
2022-12-12T09:40:23.606Z,18.00
2022-12-12T09:41:23.476Z,19.40
2022-12-12T09:42:23.438Z,19.20
2022-12-12T09:43:29.155Z,20.80
2022-12-12T09:44:24.332Z,19.50
2022-12-12T09:45:23.372Z,19.90
2022-12-12T09:46:23.298Z,20.70
2022-12-12T09:47:23.294Z,21.10
2022-12-12T10:03:56.211Z,19.10
2022-12-12T10:04:56.197Z,19.10
2022-12-12T10:06:20.497Z,18.80
2022-12-12T10:06:57.190Z,20.10
2022-12-12T10:07:56.201Z,20.80
2022-12-12T10:08:56.151Z,19.60
2022-12-12T10:09:56.160Z,19.80
2022-12-12T10:10:56.138Z,20.80
2022-12-12T10:11:56.104Z,20.80
2022-12-12T10:12:56.120Z,20.00
2022-12-12T10:13:56.078Z,19.10
2022-12-12T10:14:56.060Z,19.30
2022-12-12T10:15:56.238Z,18.40
2022-12-12T10:16:58.200Z,19.50
2022-12-12T10:17:56.078Z,19.60
2022-12-12T10:18:56.012Z,18.40
2022-12-12T10:19:56.129Z,18.10
2022-12-12T10:20:56.102Z,19.00
2022-12-12T10:21:56.069Z,16.50
2022-12-12T10:22:55.968Z,17.40
2022-12-12T10:23:55.968Z,16.80
2022-12-12T10:24:55.970Z,16.80
2022-12-12T10:26:14.302Z,16.30
2022-12-12T10:28:06.138Z,15.80
2022-12-12T10:29:13.153Z,16.80
2022-12-12T10:30:13.928Z,18.90
2022-12-12T10:31:14.859Z,17.90
2022-12-12T10:32:14.589Z,17.00
2022-12-12T10:34:15.446Z,15.00
2022-12-12T10:35:26.695Z,14.50
2022-12-12T10:36:24.365Z,14.10
2022-12-12T10:37:22.906Z,16.00
2022-12-12T10:38:22.892Z,17.90
2022-12-12T10:39:36.422Z,19.00
2022-12-12T10:40:15.365Z,17.20
2022-12-12T10:41:24.044Z,17.70
2022-12-12T10:42:22.843Z,18.50
2022-12-12T10:43:15.322Z,17.90
2022-12-12T10:44:22.816Z,18.80
2022-12-12T10:45:22.864Z,16.80
2022-12-12T10:46:24.121Z,17.80
2022-12-12T10:47:22.798Z,17.40
2022-12-12T10:48:15.308Z,18.40
2022-12-12T10:49:15.246Z,17.90
2022-12-12T10:50:15.317Z,19.20
2022-12-12T10:51:15.258Z,18.30
2022-12-12T10:52:15.330Z,20.10
2022-12-12T10:53:15.249Z,19.90
2022-12-12T10:54:15.188Z,20.20
2022-12-12T10:55:15.411Z,19.70
2022-12-12T10:56:15.179Z,20.60
2022-12-12T10:57:20.348Z,18.70
2022-12-12T10:58:16.187Z,17.50
2022-12-12T10:59:15.120Z,18.70
2022-12-12T11:00:15.109Z,18.80
2022-12-12T11:01:15.248Z,19.70
2022-12-12T11:02:15.321Z,18.30
2022-12-12T11:03:15.145Z,19.50
2022-12-12T11:04:15.100Z,17.30
2022-12-12T11:05:15.328Z,16.20
2022-12-12T11:06:15.162Z,16.10
2022-12-12T11:07:15.117Z,17.70
2022-12-12T11:08:15.056Z,20.40
2022-12-12T11:09:15.038Z,18.50
2022-12-12T11:10:14.999Z,18.30
2022-12-12T11:11:15.103Z,17.80
2022-12-12T11:12:15.079Z,18.00
2022-12-12T11:13:15.058Z,18.60
2022-12-12T11:14:14.965Z,17.70
2022-12-12T11:15:15.092Z,17.80
2022-12-12T11:16:15.066Z,15.30
2022-12-12T11:17:14.902Z,19.30
2022-12-12T11:18:15.033Z,19.60
2022-12-12T11:19:14.870Z,21.60
2022-12-12T11:20:14.883Z,19.30
2022-12-12T11:21:16.889Z,18.20
2022-12-12T11:22:14.950Z,20.00
2022-12-12T11:23:18.224Z,21.00
2022-12-12T11:24:14.809Z,20.70
2022-12-12T11:25:15.126Z,21.30
2022-12-12T11:26:15.508Z,19.50
2022-12-12T11:27:14.790Z,20.20
2022-12-12T11:28:14.849Z,21.00
2022-12-12T11:29:14.774Z,21.60
2022-12-12T11:30:14.768Z,20.70
2022-12-12T11:31:14.714Z,19.10
2022-12-12T11:32:15.741Z,20.90
2022-12-12T11:33:14.721Z,18.60
2022-12-12T11:34:14.781Z,19.50
2022-12-12T11:35:15.024Z,22.20
2022-12-12T11:36:14.660Z,20.20
2022-12-12T11:37:14.649Z,21.20
2022-12-12T11:38:14.630Z,21.10
2022-12-12T11:39:14.682Z,23.00
2022-12-12T11:40:14.630Z,22.50
2022-12-12T11:41:14.651Z,22.10
2022-12-12T11:42:14.620Z,17.90
2022-12-12T11:43:14.592Z,19.30
2022-12-12T11:44:19.919Z,20.30
2022-12-12T11:45:15.783Z,20.20
2022-12-12T11:46:14.568Z,21.30
2022-12-12T11:47:14.546Z,22.10
2022-12-12T11:48:15.490Z,19.60
2022-12-12T11:49:14.501Z,19.60
2022-12-12T11:50:14.482Z,19.50
2022-12-12T11:51:14.473Z,20.60
2022-12-12T11:52:14.471Z,20.50
2022-12-12T11:53:14.448Z,20.00
2022-12-12T11:54:14.478Z,18.90
2022-12-12T11:55:14.762Z,19.70
2022-12-12T11:56:14.408Z,19.00
2022-12-12T11:57:14.391Z,17.30
2022-12-12T11:58:14.390Z,18.20
2022-12-12T11:59:14.372Z,16.30
2022-12-12T12:00:15.380Z,15.90
2022-12-12T12:01:14.342Z,15.60
2022-12-12T12:02:14.343Z,16.50
2022-12-12T12:03:14.336Z,16.80
2022-12-12T12:04:14.349Z,16.60
2022-12-12T12:05:14.540Z,16.10
2022-12-12T12:06:14.272Z,16.00
2022-12-12T12:07:14.289Z,16.30
2022-12-12T12:08:14.309Z,18.00
2022-12-12T12:09:14.233Z,17.90
2022-12-12T12:10:15.649Z,17.30
2022-12-12T12:11:14.219Z,16.50
2022-12-12T12:12:14.267Z,16.20
2022-12-12T12:13:14.182Z,17.60
2022-12-12T12:14:15.186Z,17.10
2022-12-12T12:15:14.474Z,17.50
2022-12-12T12:16:14.231Z,18.70
2022-12-12T12:17:14.135Z,18.90
2022-12-12T12:18:14.137Z,19.00
2022-12-12T12:19:15.122Z,19.60
2022-12-12T12:20:14.157Z,20.20
2022-12-12T12:21:14.081Z,19.70
2022-12-12T12:22:14.083Z,20.50
2022-12-12T12:23:14.124Z,19.90
2022-12-12T12:24:14.121Z,20.30
2022-12-12T12:25:14.437Z,20.20
2022-12-12T12:26:14.024Z,20.80
2022-12-12T12:27:14.033Z,19.10
2022-12-12T12:28:14.017Z,19.70
2022-12-12T12:29:14.053Z,18.00
2022-12-12T12:30:14.173Z,18.50
2022-12-12T12:31:14.082Z,17.80
2022-12-12T12:32:14.121Z,17.70
2022-12-12T12:33:14.004Z,16.60
2022-12-12T12:34:13.923Z,18.10
2022-12-12T12:35:14.323Z,18.00
2022-12-12T12:36:19.300Z,16.10
2022-12-12T12:37:14.950Z,17.70
2022-12-12T12:38:13.942Z,16.70
2022-12-12T12:39:13.863Z,16.80
2022-12-12T12:40:14.084Z,15.20
2022-12-12T12:41:13.936Z,16.60
2022-12-12T12:42:13.854Z,16.20
2022-12-12T12:43:13.812Z,17.60
2022-12-12T12:44:13.802Z,16.70
2022-12-12T12:45:14.091Z,18.30
2022-12-12T12:46:13.853Z,17.70
2022-12-12T12:47:13.892Z,17.70
2022-12-12T12:48:13.794Z,16.10
2022-12-12T12:49:13.747Z,15.60
2022-12-12T12:50:14.235Z,14.00
2022-12-12T12:51:13.721Z,15.60
2022-12-12T12:52:13.804Z,14.70
2022-12-12T12:53:13.733Z,14.30
2022-12-12T12:54:13.736Z,15.80
2022-12-12T12:55:14.034Z,14.20
2022-12-12T12:56:13.730Z,15.00
2022-12-12T12:57:13.756Z,14.40
2022-12-12T12:58:13.729Z,13.70
2022-12-12T12:59:13.650Z,14.40
2022-12-12T13:00:13.991Z,14.20
2022-12-12T13:01:13.733Z,14.40
2022-12-12T13:02:13.683Z,13.10
2022-12-12T13:03:13.681Z,15.90
2022-12-12T13:04:13.543Z,14.30
2022-12-12T13:05:13.547Z,13.90
2022-12-12T13:06:13.603Z,14.60
2022-12-12T13:07:13.595Z,15.50
2022-12-12T13:08:13.593Z,16.20
2022-12-12T13:09:13.539Z,14.90
2022-12-12T13:10:13.881Z,15.90
2022-12-12T13:11:13.527Z,13.50
2022-12-12T13:12:13.535Z,14.30
2022-12-12T13:13:13.467Z,16.70
2022-12-12T13:14:13.435Z,15.90
2022-12-12T13:15:13.446Z,16.10
2022-12-12T13:16:13.523Z,15.90
2022-12-12T13:17:13.387Z,16.80
2022-12-12T13:18:13.395Z,16.20
2022-12-12T13:19:13.364Z,13.40
2022-12-12T13:20:16.548Z,14.00
2022-12-12T13:21:13.356Z,14.80
2022-12-12T13:22:13.384Z,14.30
2022-12-12T13:23:14.359Z,15.40
2022-12-12T13:24:15.392Z,14.00
2022-12-12T13:25:13.615Z,14.50
2022-12-12T13:26:13.319Z,13.20
2022-12-12T13:27:13.312Z,13.40
2022-12-12T13:28:13.325Z,15.00
2022-12-12T13:29:13.271Z,15.20
2022-12-12T13:30:13.513Z,14.60